Time;durP1;ratioP1;P1;durP2;ratioP2;P2;SDS_P1;SDS_P2;PMS_P1;PMS_P2;Temp;Humidity;BMP_temperature;BMP_pressure;BME280_temperature;BME280_humidity;BME280_pressure;Samples;Min_cycle;Max_cycle;Signal;HPM_P1;HPM_P2
2022/05/25 00:00:23;;;;;;;1999.90;999.90;;;12.40;99.90;;;;;;5054076;28;20164;-71
2022/05/25 00:02:49;;;;;;;1999.90;999.90;;;12.40;99.90;;;;;;5053940;28;20893;-71
2022/05/25 00:05:16;;;;;;;1999.90;999.90;;;12.40;99.90;;;;;;5053647;28;20438;-71
2022/05/25 00:07:42;;;;;;;1999.90;999.90;;;12.40;99.90;;;;;;5053428;28;20168;-71
2022/05/25 00:10:08;;;;;;;1999.90;999.90;;;12.40;99.90;;;;;;5053853;28;20480;-71
2022/05/25 00:12:34;;;;;;;1999.90;999.90;;;12.40;99.90;;;;;;5053958;28;20422;-71
2022/05/25 00:14:59;;;;;;;1999.90;999.90;;;12.50;99.90;;;;;;5053477;28;20968;-71
2022/05/25 00:17:25;;;;;;;1999.90;999.90;;;12.50;99.90;;;;;;5053708;28;20221;-71
2022/05/25 00:19:59;;;;;;;1999.90;999.90;;;12.40;99.90;;;;;;5053414;28;20243;-71
2022/05/25 00:22:27;;;;;;;1999.90;999.90;;;12.40;99.90;;;;;;5053572;28;20172;-71
2022/05/25 00:24:57;;;;;;;1999.90;999.90;;;12.40;99.90;;;;;;5053311;28;20410;-71
2022/05/25 00:27:22;;;;;;;1999.90;999.90;;;12.40;99.90;;;;;;5053705;28;20424;-71
2022/05/25 00:29:48;;;;;;;1999.90;999.90;;;12.40;99.90;;;;;;5053381;28;20429;-71
2022/05/25 00:32:13;;;;;;;1999.90;999.90;;;12.40;99.90;;;;;;5053435;28;20261;-71
2022/05/25 00:34:39;;;;;;;1999.90;999.90;;;12.40;99.90;;;;;;5053138;28;20623;-71
2022/05/25 00:37:05;;;;;;;1999.90;999.90;;;12.40;99.90;;;;;;5053378;28;20254;-71
2022/05/25 00:39:30;;;;;;;1999.90;999.90;;;12.40;99.90;;;;;;5053241;28;20205;-71
2022/05/25 00:41:56;;;;;;;1999.90;999.90;;;12.40;99.90;;;;;;5053332;28;20204;-71
2022/05/25 00:44:22;;;;;;;1999.90;999.90;;;12.30;99.90;;;;;;5053078;28;20163;-71
2022/05/25 00:46:48;;;;;;;1999.90;999.90;;;12.30;99.90;;;;;;5053239;28;20198;-71
2022/05/25 00:49:30;;;;;;;1999.90;999.90;;;12.20;99.90;;;;;;5053103;28;20436;-71
2022/05/25 00:51:57;;;;;;;1999.90;999.90;;;12.20;99.90;;;;;;5053149;28;20411;-71
2022/05/25 00:54:39;;;;;;;1999.90;999.90;;;12.20;99.90;;;;;;5052792;28;20406;-71
2022/05/25 00:57:13;;;;;;;1999.90;999.90;;;12.20;99.90;;;;;;5053015;28;20506;-71
2022/05/25 00:59:52;;;;;;;1999.90;999.90;;;12.20;99.90;;;;;;5055918;28;20441;-73
2022/05/25 01:02:17;;;;;;;1999.90;999.90;;;12.20;99.90;;;;;;5055749;28;20398;-72
2022/05/25 01:04:44;;;;;;;1999.90;999.90;;;12.20;99.90;;;;;;5055488;28;20407;-71
2022/05/25 01:07:32;;;;;;;1999.90;999.90;;;12.20;99.90;;;;;;5056768;28;20647;-72
2022/05/25 01:10:32;;;;;;;1999.90;999.90;;;12.30;99.90;;;;;;5055074;28;20455;-72
2022/05/25 01:13:36;;;;;;;1999.90;999.90;;;12.30;99.90;;;;;;5054209;28;20920;-71
2022/05/25 01:16:19;;;;;;;1999.90;999.90;;;12.30;99.90;;;;;;5042672;28;20432;-72
2022/05/25 01:19:10;;;;;;;1999.90;999.90;;;12.20;99.90;;;;;;5054227;28;20470;-71
2022/05/25 01:21:56;;;;;;;1999.90;999.90;;;12.20;99.90;;;;;;5053800;28;20410;-72
2022/05/25 01:24:46;;;;;;;1999.90;999.90;;;12.20;99.90;;;;;;5053680;28;20407;-72
2022/05/25 01:27:25;;;;;;;1999.90;999.90;;;12.20;99.90;;;;;;5054232;28;20410;-72
2022/05/25 01:30:10;;;;;;;1999.90;999.90;;;12.10;99.90;;;;;;5055285;28;20413;-73
2022/05/25 01:32:54;;;;;;;1999.90;999.90;;;12.10;99.90;;;;;;5055325;28;20409;-72
2022/05/25 01:35:32;;;;;;;1999.90;999.90;;;12.10;99.90;;;;;;5054636;28;20401;-73
2022/05/25 01:38:16;;;;;;;1999.90;999.90;;;12.00;99.90;;;;;;5054068;28;20410;-73
2022/05/25 01:40:55;;;;;;;1999.90;999.90;;;12.00;99.90;;;;;;5053991;28;20394;-70
2022/05/25 01:43:27;;;;;;;1999.90;999.90;;;11.90;99.90;;;;;;5054249;28;20409;-72
2022/05/25 01:45:58;;;;;;;1999.90;999.90;;;12.00;99.90;;;;;;5054318;28;20425;-72
2022/05/25 01:48:25;;;;;;;1999.90;999.90;;;11.90;99.90;;;;;;5054331;28;20563;-72
2022/05/25 01:51:06;;;;;;;1999.90;999.90;;;11.90;99.90;;;;;;5055069;28;20454;-72
2022/05/25 01:53:37;;;;;;;1999.90;999.90;;;11.80;99.90;;;;;;5054987;28;20412;-72
2022/05/25 01:56:06;;;;;;;1999.90;999.90;;;11.80;99.90;;;;;;5053466;28;20398;-72
2022/05/25 01:58:36;;;;;;;1999.90;999.90;;;11.80;99.90;;;;;;5054653;28;20548;-72
2022/05/25 02:01:05;;;;;;;1999.90;999.90;;;11.80;99.90;;;;;;5054211;28;20398;-72
2022/05/25 02:06:27;;;;;;;1999.90;999.90;;;11.80;99.90;;;;;;5054149;28;20405;-71
2022/05/25 02:09:05;;;;;;;1999.90;999.90;;;11.70;99.90;;;;;;5051808;28;20421;-71
2022/05/25 02:11:39;;;;;;;1999.90;999.90;;;11.70;99.90;;;;;;5051917;28;20401;-71
2022/05/25 02:14:39;;;;;;;1999.90;999.90;;;11.80;99.90;;;;;;5051640;28;20468;-71
2022/05/25 02:17:05;;;;;;;1999.90;999.90;;;11.80;99.90;;;;;;5014256;28;20919;-71
2022/05/25 02:19:44;;;;;;;1999.90;999.90;;;11.80;99.90;;;;;;5051526;28;20458;-71
2022/05/25 02:22:16;;;;;;;1999.90;999.90;;;11.80;99.90;;;;;;5051951;28;20175;-71
2022/05/25 02:24:57;;;;;;;1999.90;999.90;;;11.80;99.90;;;;;;5051450;28;20409;-71
2022/05/25 02:27:33;;;;;;;1999.90;999.90;;;11.70;99.90;;;;;;5051706;28;20399;-71
2022/05/25 02:30:04;;;;;;;1999.90;999.90;;;11.80;99.90;;;;;;5051599;28;20425;-71
2022/05/25 02:32:38;;;;;;;1999.90;999.90;;;11.80;99.90;;;;;;5054935;28;20872;-71
2022/05/25 02:35:06;;;;;;;1999.90;999.90;;;11.80;99.90;;;;;;5055421;28;20783;-71
2022/05/25 02:37:33;;;;;;;1999.90;999.90;;;11.80;99.90;;;;;;5055579;28;20408;-71
2022/05/25 02:40:01;;;;;;;1999.90;999.90;;;11.90;99.90;;;;;;5055430;28;20450;-71
2022/05/25 02:42:26;;;;;;;1999.90;999.90;;;11.90;99.90;;;;;;5055612;28;20440;-71
2022/05/25 02:44:53;;;;;;;1999.90;999.90;;;11.90;99.90;;;;;;5055190;28;20399;-71
2022/05/25 02:47:19;;;;;;;1999.90;999.90;;;11.90;99.90;;;;;;5055459;28;20229;-71
2022/05/25 02:49:45;;;;;;;1999.90;999.90;;;11.90;99.90;;;;;;5055336;28;20465;-71
2022/05/25 02:52:11;;;;;;;1999.90;999.90;;;11.90;99.90;;;;;;5055360;28;20448;-71
2022/05/25 02:54:38;;;;;;;1999.90;999.90;;;11.90;99.90;;;;;;5055004;28;20173;-71
2022/05/25 02:57:05;;;;;;;1999.90;999.90;;;11.90;99.90;;;;;;5055227;28;20402;-70
2022/05/25 02:59:31;;;;;;;1999.90;999.90;;;11.90;99.90;;;;;;5055182;28;20465;-71
2022/05/25 03:01:57;;;;;;;1999.90;999.90;;;11.90;99.90;;;;;;5055182;28;20925;-70
2022/05/25 03:04:22;;;;;;;1999.90;999.90;;;11.90;99.90;;;;;;5054895;28;20262;-71
2022/05/25 03:06:48;;;;;;;1999.90;999.90;;;11.80;99.90;;;;;;5055060;28;20171;-71
2022/05/25 03:09:14;;;;;;;1999.90;999.90;;;11.80;99.90;;;;;;5054924;28;20664;-71
2022/05/25 03:11:40;;;;;;;1999.90;999.90;;;11.80;99.90;;;;;;5055013;28;20247;-71
2022/05/25 03:14:06;;;;;;;1999.90;999.90;;;11.80;99.90;;;;;;5054522;28;20179;-71
2022/05/25 03:16:33;;;;;;;1999.90;999.90;;;11.70;99.90;;;;;;5054821;28;20413;-71
2022/05/25 03:18:58;;;;;;;1999.90;999.90;;;11.70;99.90;;;;;;5054966;28;20466;-71
2022/05/25 03:21:25;;;;;;;1999.90;999.90;;;11.60;99.90;;;;;;5054735;28;20398;-71
2022/05/25 03:23:51;;;;;;;1999.90;999.90;;;11.60;99.90;;;;;;5057646;28;20163;-71
2022/05/25 03:26:17;;;;;;;1999.90;999.90;;;11.40;99.90;;;;;;5058372;28;20406;-72
2022/05/25 03:28:43;;;;;;;1999.90;999.90;;;11.40;99.90;;;;;;5058733;28;20444;-73
2022/05/25 03:31:09;;;;;;;1999.90;999.90;;;11.30;99.90;;;;;;5059487;28;20827;-72
2022/05/25 03:33:35;;;;;;;1999.90;999.90;;;11.30;99.90;;;;;;5059942;28;20414;-72
2022/05/25 03:36:01;;;;;;;1999.90;999.90;;;11.30;99.90;;;;;;5058984;28;20536;-73
2022/05/25 03:38:30;;;;;;;1999.90;999.90;;;11.30;99.90;;;;;;5060269;28;20252;-73
2022/05/25 03:40:58;;;;;;;1999.90;999.90;;;11.30;99.90;;;;;;5059569;28;20190;-73
2022/05/25 03:43:29;;;;;;;1999.90;999.90;;;11.20;99.90;;;;;;5058920;28;20915;-72
2022/05/25 03:45:54;;;;;;;1999.90;999.90;;;11.10;99.90;;;;;;5056368;28;20422;-71
2022/05/25 03:48:20;;;;;;;1999.90;999.90;;;11.10;99.90;;;;;;5054208;28;20437;-71
2022/05/25 03:50:46;;;;;;;1999.90;999.90;;;11.20;99.90;;;;;;5054187;28;20182;-71
2022/05/25 03:53:12;;;;;;;1999.90;999.90;;;11.20;99.90;;;;;;5056851;28;20626;-72
2022/05/25 03:55:39;;;;;;;1999.90;999.90;;;11.10;99.90;;;;;;5059529;28;20407;-72
2022/05/25 03:58:05;;;;;;;1999.90;999.90;;;11.20;99.90;;;;;;5060997;28;20430;-73
2022/05/25 04:00:31;;;;;;;1999.90;999.90;;;11.20;99.90;;;;;;5060659;28;20417;-72
2022/05/25 04:02:59;;;;;;;1999.90;999.90;;;11.10;99.90;;;;;;5059255;28;20961;-72
2022/05/25 04:05:26;;;;;;;1999.90;999.90;;;11.10;99.90;;;;;;5059389;28;21092;-73
2022/05/25 04:07:51;;;;;;;1999.90;999.90;;;11.10;99.90;;;;;;5059170;28;20402;-72
2022/05/25 04:10:19;;;;;;;1999.90;999.90;;;11.10;99.90;;;;;;5059056;28;20422;-73
2022/05/25 04:12:45;;;;;;;1999.90;999.90;;;11.20;99.90;;;;;;5059725;28;20176;-73
2022/05/25 04:15:14;;;;;;;1999.90;999.90;;;11.10;99.90;;;;;;5059046;28;20422;-72
2022/05/25 04:17:40;;;;;;;1999.90;999.90;;;11.20;99.90;;;;;;5059548;28;20775;-72
2022/05/25 04:20:06;;;;;;;1999.90;999.90;;;11.20;99.90;;;;;;5059819;28;20533;-73
2022/05/25 04:22:33;;;;;;;1999.90;999.90;;;11.20;99.90;;;;;;5060024;28;20542;-72
2022/05/25 04:24:59;;;;;;;1999.90;999.90;;;11.20;99.90;;;;;;5058642;28;20976;-72
2022/05/25 04:27:26;;;;;;;1999.90;999.90;;;11.20;99.90;;;;;;5058574;28;20899;-72
2022/05/25 04:29:52;;;;;;;1999.90;999.90;;;11.20;99.90;;;;;;5059852;28;20985;-71
2022/05/25 04:32:17;;;;;;;1999.90;999.90;;;11.20;99.90;;;;;;5058269;28;20418;-73
2022/05/25 04:34:43;;;;;;;1999.90;999.90;;;11.30;99.90;;;;;;5057061;28;20182;-73
2022/05/25 04:39:54;;;;;;;1999.90;999.90;;;11.30;99.90;;;;;;5056986;28;20480;-73
2022/05/25 04:42:19;;;;;;;1999.90;999.90;;;11.30;99.90;;;;;;5058156;28;20418;-73
2022/05/25 04:44:45;;;;;;;1999.90;999.90;;;11.40;99.90;;;;;;5057240;28;20179;-73
2022/05/25 04:47:10;;;;;;;1999.90;999.90;;;11.40;99.90;;;;;;5057302;28;20754;-71
2022/05/25 04:49:36;;;;;;;1999.90;999.90;;;11.50;99.90;;;;;;5054544;28;20260;-71
2022/05/25 04:52:03;;;;;;;1999.90;999.90;;;11.50;99.90;;;;;;5053158;28;20258;-71
2022/05/25 04:54:28;;;;;;;1999.90;999.90;;;11.50;99.90;;;;;;5051933;28;20179;-71
2022/05/25 04:59:39;;;;;;;1999.90;999.90;;;11.60;99.90;;;;;;5055866;28;20226;-71
2022/05/25 05:02:05;;;;;;;1999.90;999.90;;;11.60;99.90;;;;;;5053899;28;20831;-71
2022/05/25 05:04:31;;;;;;;1999.90;999.90;;;11.60;99.90;;;;;;5052429;28;20410;-71
2022/05/25 05:06:56;;;;;;;1999.90;999.90;;;11.70;99.90;;;;;;5052830;28;20414;-71
2022/05/25 05:09:22;;;;;;;1999.90;999.90;;;11.70;99.90;;;;;;5052726;28;20237;-71
2022/05/25 05:11:47;;;;;;;1999.90;999.90;;;11.70;99.90;;;;;;5052654;28;20189;-71
2022/05/25 05:14:16;;;;;;;1999.90;999.90;;;11.70;99.90;;;;;;5052369;28;20175;-71
2022/05/25 05:16:42;;;;;;;1999.90;999.90;;;11.80;99.90;;;;;;5052604;28;20242;-71
2022/05/25 05:19:08;;;;;;;1999.90;999.90;;;11.80;99.90;;;;;;5052345;28;20461;-71
2022/05/25 05:21:33;;;;;;;1999.90;999.90;;;11.90;99.90;;;;;;5052518;28;20184;-72
2022/05/25 05:23:59;;;;;;;1999.90;999.90;;;12.00;99.90;;;;;;5052425;28;20430;-71
2022/05/25 05:26:25;;;;;;;1999.90;999.90;;;12.00;99.90;;;;;;5052353;28;20179;-71
2022/05/25 05:28:53;;;;;;;1999.90;999.90;;;12.10;99.90;;;;;;5053863;28;20196;-73
2022/05/25 05:31:19;;;;;;;1999.90;999.90;;;12.00;99.90;;;;;;5056016;28;20813;-71
2022/05/25 05:33:45;;;;;;;1999.90;999.90;;;12.20;99.90;;;;;;5052282;28;20443;-71
2022/05/25 05:36:18;;;;;;;1999.90;999.90;;;12.20;99.90;;;;;;5052151;28;20411;-71
2022/05/25 05:38:58;;;;;;;1999.90;999.90;;;12.20;99.90;;;;;;5052259;28;20842;-71
2022/05/25 05:41:29;;;;;;;1999.90;999.90;;;12.30;99.90;;;;;;5052381;28;20403;-72
2022/05/25 05:43:55;;;;;;;1999.90;999.90;;;12.30;99.90;;;;;;5052296;28;20403;-72
2022/05/25 05:46:22;;;;;;;1999.90;999.90;;;12.30;99.90;;;;;;5052179;28;20412;-72
2022/05/25 05:48:48;;;;;;;1999.90;999.90;;;12.40;99.90;;;;;;5053809;28;20585;-72
2022/05/25 05:51:14;;;;;;;1999.90;999.90;;;12.50;99.90;;;;;;5058563;28;20418;-72
2022/05/25 05:53:40;;;;;;;1999.90;999.90;;;12.50;99.90;;;;;;5056067;28;20410;-71
2022/05/25 05:56:07;;;;;;;1999.90;999.90;;;12.60;99.90;;;;;;5051786;28;20195;-71
2022/05/25 05:58:32;;;;;;;1999.90;999.90;;;12.70;99.90;;;;;;5051907;28;20455;-71
2022/05/25 06:00:58;;;;;;;1999.90;999.90;;;12.70;99.90;;;;;;5052207;28;20493;-72
2022/05/25 06:03:24;;;;;;;1999.90;999.90;;;12.70;99.90;;;;;;5052001;28;20254;-71
2022/05/25 06:05:49;;;;;;;1999.90;999.90;;;12.80;99.90;;;;;;5051501;28;20294;-71
2022/05/25 06:08:23;;;;;;;1999.90;999.90;;;12.80;99.90;;;;;;5052115;28;20262;-71
2022/05/25 06:10:49;;;;;;;1999.90;999.90;;;12.90;99.90;;;;;;5051823;28;20172;-71
2022/05/25 06:13:15;;;;;;;1999.90;999.90;;;12.90;99.90;;;;;;5034004;28;20426;-72
2022/05/25 06:21:29;;;;;;;1999.90;999.90;;;13.10;99.90;;;;;;5013039;28;20414;-72
2022/05/25 06:23:56;;;;;;;1999.90;999.90;;;13.10;99.90;;;;;;5056806;28;20463;-71
2022/05/25 06:26:25;;;;;;;1999.90;999.90;;;13.20;99.90;;;;;;5057105;28;20186;-72
2022/05/25 06:28:51;;;;;;;1999.90;999.90;;;13.30;99.90;;;;;;5058871;28;20431;-72
2022/05/25 06:31:16;;;;;;;1999.90;999.90;;;13.30;99.90;;;;;;5057796;28;20834;-73
2022/05/25 06:33:43;;;;;;;1999.90;999.90;;;13.40;99.90;;;;;;5059006;28;20172;-73
2022/05/25 06:36:21;;;;;;;1999.90;999.90;;;13.40;99.90;;;;;;5056337;28;20211;-71
2022/05/25 06:38:47;;;;;;;1999.90;999.90;;;13.50;99.90;;;;;;5051588;28;20860;-71
2022/05/25 06:41:13;;;;;;;1999.90;999.90;;;13.70;99.90;;;;;;5051768;28;20440;-72
2022/05/25 06:43:39;;;;;;;1999.90;999.90;;;13.70;99.90;;;;;;5051822;28;20403;-71
2022/05/25 06:46:06;;;;;;;1999.90;999.90;;;13.80;99.90;;;;;;5051488;28;20433;-71
2022/05/25 06:48:32;;;;;;;1999.90;999.90;;;13.90;99.90;;;;;;5051607;28;20439;-71
2022/05/25 06:50:58;;;;;;;1999.90;999.90;;;13.90;99.90;;;;;;5051553;28;20415;-72
2022/05/25 06:53:23;;;;;;;1999.90;999.90;;;13.90;99.90;;;;;;5051430;28;20175;-72
2022/05/25 06:55:49;;;;;;;1999.90;999.90;;;13.90;99.90;;;;;;5051144;28;20411;-71
2022/05/25 06:58:15;;;;;;;1999.90;999.90;;;14.10;99.90;;;;;;5051217;28;20189;-71
2022/05/25 07:00:40;;;;;;;1999.90;999.90;;;14.10;99.90;;;;;;5051343;28;20626;-71
2022/05/25 07:03:06;;;;;;;1999.90;999.90;;;14.20;99.90;;;;;;5051387;28;20710;-71
2022/05/25 07:05:33;;;;;;;1999.90;999.90;;;14.20;99.90;;;;;;5050958;28;20638;-71
2022/05/25 07:08:00;;;;;;;1999.90;999.90;;;14.20;99.90;;;;;;5047125;28;20770;-71
2022/05/25 07:10:25;;;;;;;1999.90;999.90;;;14.30;99.90;;;;;;5050558;28;20412;-71
2022/05/25 07:12:51;;;;;;;1999.90;999.90;;;14.40;99.90;;;;;;5050816;28;20416;-71
2022/05/25 07:15:16;;;;;;;1999.90;999.90;;;14.60;99.90;;;;;;5050224;28;20168;-71
2022/05/25 07:17:42;;;;;;;1999.90;999.90;;;14.70;99.90;;;;;;5050892;28;20585;-71
2022/05/25 07:20:09;;;;;;;1999.90;999.90;;;14.80;99.90;;;;;;5054388;28;20206;-71
2022/05/25 07:22:38;;;;;;;1999.90;999.90;;;14.80;99.90;;;;;;5054011;28;20446;-71
2022/05/25 07:25:04;;;;;;;1999.90;999.90;;;14.80;99.90;;;;;;5054088;28;20412;-71
2022/05/25 07:27:29;;;;;;;1999.90;999.90;;;14.90;99.90;;;;;;5054369;28;20415;-71
2022/05/25 07:29:55;;;;;;;1999.90;999.90;;;15.00;99.90;;;;;;5053736;28;20533;-71
2022/05/25 07:32:22;;;;;;;1999.90;999.90;;;15.00;99.90;;;;;;5054331;28;20171;-71
2022/05/25 07:34:55;;;;;;;1999.90;999.90;;;15.00;99.90;;;;;;5054065;28;20253;-71
2022/05/25 07:37:22;;;;;;;1999.90;999.90;;;15.10;99.90;;;;;;5053732;28;20409;-71
2022/05/25 07:39:59;;;;;;;1999.90;999.90;;;15.20;99.90;;;;;;5053878;28;20463;-71
2022/05/25 07:42:26;;;;;;;1999.90;999.90;;;15.20;99.90;;;;;;5054227;28;20953;-71
2022/05/25 07:45:03;;;;;;;1999.90;999.90;;;15.30;99.90;;;;;;5053580;28;20400;-71
2022/05/25 07:47:31;;;;;;;1999.90;999.90;;;15.30;99.90;;;;;;5054089;28;20409;-71
2022/05/25 07:49:56;;;;;;;1999.90;999.90;;;15.40;99.90;;;;;;5053965;28;20429;-71
2022/05/25 07:52:25;;;;;;;1999.90;999.90;;;15.40;99.90;;;;;;5053619;28;20869;-71
2022/05/25 07:54:51;;;;;;;1999.90;999.90;;;15.50;99.90;;;;;;5053657;28;20293;-71
2022/05/25 07:57:16;;;;;;;1999.90;999.90;;;15.60;99.90;;;;;;5053960;28;20504;-71
2022/05/25 07:59:42;;;;;;;1999.90;999.90;;;15.70;99.90;;;;;;5053116;28;20214;-71
2022/05/25 08:07:46;;;;;;;1999.90;999.90;;;15.80;99.90;;;;;;5053958;28;20439;-71
2022/05/25 08:10:16;;;;;;;1999.90;999.90;;;15.90;99.90;;;;;;5053678;28;20406;-71
2022/05/25 08:12:44;;;;;;;1999.90;999.90;;;16.00;99.90;;;;;;5053097;28;20408;-71
2022/05/25 08:15:12;;;;;;;1999.90;999.90;;;16.10;99.90;;;;;;5053247;28;20767;-71
2022/05/25 08:17:38;;;;;;;1999.90;999.90;;;16.10;99.90;;;;;;5053424;28;20418;-72
2022/05/25 08:20:05;;;;;;;1999.90;999.90;;;16.20;99.90;;;;;;5052694;28;21035;-72
2022/05/25 08:22:30;;;;;;;1999.90;999.90;;;16.30;99.90;;;;;;5053387;28;20199;-72
2022/05/25 08:24:57;;;;;;;1999.90;999.90;;;16.30;99.90;;;;;;5053006;28;20410;-72
2022/05/25 08:27:22;;;;;;;1999.90;999.90;;;16.40;99.90;;;;;;5052993;28;20656;-71
2022/05/25 08:29:48;;;;;;;1999.90;999.90;;;16.30;99.90;;;;;;5052682;28;20462;-72
2022/05/25 08:32:14;;;;;;;1999.90;999.90;;;16.40;99.90;;;;;;5053248;28;20169;-72
2022/05/25 08:34:41;;;;;;;1999.90;999.90;;;16.50;99.90;;;;;;5052887;28;20688;-72
2022/05/25 08:37:06;;;;;;;1999.90;999.90;;;16.40;99.90;;;;;;5052778;28;20437;-72
2022/05/25 08:39:32;;;;;;;1999.90;999.90;;;16.40;99.90;;;;;;5052936;28;20935;-72
2022/05/25 08:42:05;;;;;;;1999.90;999.90;;;16.50;99.90;;;;;;5053014;28;20902;-72
2022/05/25 08:44:32;;;;;;;1999.90;999.90;;;16.60;99.90;;;;;;5052265;28;20174;-72
2022/05/25 08:47:00;;;;;;;1999.90;999.90;;;16.70;99.90;;;;;;5052922;28;20409;-71
2022/05/25 08:49:29;;;;;;;1999.90;999.90;;;16.70;99.90;;;;;;5052689;28;20434;-72
2022/05/25 08:51:57;;;;;;;1999.90;999.90;;;16.90;99.90;;;;;;5052410;28;20443;-72
2022/05/25 08:54:26;;;;;;;1999.90;999.90;;;17.00;99.90;;;;;;5052403;28;20909;-72
2022/05/25 08:57:19;;;;;;;1999.90;999.90;;;17.20;99.90;;;;;;5052569;28;20538;-72
2022/05/25 09:00:04;;;;;;;1999.90;999.90;;;17.30;99.90;;;;;;5052349;28;20575;-72
2022/05/25 09:02:45;;;;;;;1999.90;999.90;;;17.40;99.90;;;;;;5052545;28;20442;-72
2022/05/25 09:05:46;;;;;;;1999.90;999.90;;;17.40;99.90;;;;;;5051768;28;20491;-72
2022/05/25 09:08:26;;;;;;;1999.90;999.90;;;17.60;99.90;;;;;;5051653;28;20435;-72
2022/05/25 09:10:58;;;;;;;1999.90;999.90;;;17.70;99.90;;;;;;5052330;28;20815;-72
2022/05/25 09:13:39;;;;;;;1999.90;999.90;;;17.70;99.90;;;;;;5052033;28;20415;-72
2022/05/25 09:16:22;;;;;;;1999.90;999.90;;;17.70;99.90;;;;;;5052088;28;20408;-72
2022/05/25 09:18:51;;;;;;;1999.90;999.90;;;17.80;99.90;;;;;;5052623;28;20887;-72
2022/05/25 09:21:20;;;;;;;1999.90;999.90;;;18.00;99.90;;;;;;5051795;28;20395;-72
2022/05/25 09:23:46;;;;;;;1999.90;999.90;;;18.10;99.90;;;;;;5052150;28;20497;-72
2022/05/25 09:26:13;;;;;;;1999.90;999.90;;;18.00;99.90;;;;;;5052215;28;20437;-72
2022/05/25 09:28:46;;;;;;;1999.90;999.90;;;18.00;99.90;;;;;;5049848;28;20195;-75
2022/05/25 09:31:18;;;;;;;1999.90;999.90;;;18.10;99.90;;;;;;5051274;28;20404;-73
2022/05/25 09:33:55;;;;;;;1999.90;999.90;;;18.30;99.90;;;;;;5051833;28;20413;-74
2022/05/25 09:36:38;;;;;;;1999.90;999.90;;;18.40;99.90;;;;;;5051485;28;20960;-70
2022/05/25 09:39:21;;;;;;;1999.90;999.90;;;18.50;99.90;;;;;;5051601;28;21049;-71
2022/05/25 09:41:47;;;;;;;1999.90;999.90;;;18.50;98.90;;;;;;5050646;28;20400;-72
2022/05/25 09:44:18;;;;;;;1999.90;999.90;;;18.60;99.90;;;;;;5051031;28;20485;-73
2022/05/25 09:47:07;;;;;;;1999.90;999.90;;;18.50;99.30;;;;;;5051584;28;20505;-72
2022/05/25 09:49:47;;;;;;;1999.90;999.90;;;18.50;95.40;;;;;;5050985;28;21006;-74
2022/05/25 09:52:39;;;;;;;1999.90;999.90;;;18.50;95.00;;;;;;5033261;28;20844;-74
2022/05/25 09:55:07;;;;;;;1999.90;999.90;;;18.50;90.60;;;;;;5051145;28;20402;-73
2022/05/25 09:57:45;;;;;;;1999.90;999.90;;;18.60;91.40;;;;;;5051089;28;20886;-72
2022/05/25 10:00:22;;;;;;;1999.90;999.90;;;18.60;91.00;;;;;;5052869;28;20457;-74
2022/05/25 10:02:50;;;;;;;1999.90;999.90;;;18.60;93.60;;;;;;5057671;28;20415;-70
2022/05/25 10:05:34;;;;;;;1999.90;999.90;;;18.70;94.90;;;;;;5052551;28;20434;-77
2022/05/25 10:08:22;;;;;;;1999.90;999.90;;;18.90;95.30;;;;;;5053008;28;20402;-74
2022/05/25 10:10:56;;;;;;;1999.90;999.90;;;18.90;96.60;;;;;;5029791;28;20417;-74
2022/05/25 10:13:29;;;;;;;1999.90;999.90;;;18.90;94.60;;;;;;5028249;28;20405;-74
2022/05/25 10:15:54;;;;;;;1999.90;999.90;;;18.90;94.90;;;;;;5026591;28;20506;-74
2022/05/25 10:18:35;;;;;;;1999.90;999.90;;;19.20;92.60;;;;;;5027076;28;20573;-71
2022/05/25 10:21:03;;;;;;;1999.90;999.90;;;19.40;95.40;;;;;;5026440;28;20173;-72
2022/05/25 10:23:29;;;;;;;1999.90;999.90;;;19.50;95.30;;;;;;5027948;28;20509;-72
2022/05/25 10:26:15;;;;;;;1999.90;999.90;;;19.70;96.20;;;;;;5030222;28;20422;-73
2022/05/25 10:28:55;;;;;;;1999.90;999.90;;;19.80;95.10;;;;;;5038051;28;20586;-70
2022/05/25 10:37:09;;;;;;;1999.90;999.90;;;20.00;90.50;;;;;;5024546;28;20465;-71
2022/05/25 10:39:39;;;;;;;1999.90;999.90;;;20.00;80.30;;;;;;5039344;28;20458;-72
2022/05/25 10:42:17;;;;;;;1999.90;999.90;;;19.80;80.30;;;;;;5040470;28;20179;-72
2022/05/25 10:44:58;;;;;;;1999.90;999.90;;;19.80;81.30;;;;;;5038289;28;20439;-72
2022/05/25 10:47:36;;;;;;;1999.90;999.90;;;19.80;83.30;;;;;;5041006;28;20441;-71
2022/05/25 10:50:07;;;;;;;1999.90;999.90;;;19.60;81.30;;;;;;5022822;28;20459;-68
2022/05/25 10:52:34;;;;;;;1999.90;999.90;;;19.40;84.30;;;;;;5039321;28;20412;-71
2022/05/25 10:55:00;;;;;;;1999.90;999.90;;;19.40;88.60;;;;;;5044630;28;20431;-68
2022/05/25 10:57:31;;;;;;;1999.90;999.90;;;19.40;88.50;;;;;;5042787;28;20443;-69
2022/05/25 11:00:03;;;;;;;1999.90;999.90;;;19.10;76.50;;;;;;5043440;28;20467;-72
2022/05/25 11:02:54;;;;;;;1999.90;999.90;;;19.00;83.40;;;;;;5043422;28;20476;-72
2022/05/25 11:05:52;;;;;;;1999.90;999.90;;;18.70;82.10;;;;;;5044346;28;20523;-71
2022/05/25 11:08:53;;;;;;;1999.90;999.90;;;19.20;76.00;;;;;;5046426;28;20447;-72
2022/05/25 11:11:28;;;;;;;1999.90;999.90;;;19.70;74.80;;;;;;5043289;28;20959;-69
2022/05/25 11:14:17;;;;;;;1999.90;999.90;;;20.10;73.40;;;;;;5044973;28;20416;-70
2022/05/25 11:17:06;;;;;;;1999.90;999.90;;;20.10;63.10;;;;;;5027093;28;20436;-70
2022/05/25 11:20:07;;;;;;;1999.90;999.90;;;20.10;61.40;;;;;;5043873;28;20465;-68
2022/05/25 11:22:53;;;;;;;1999.90;999.90;;;19.90;63.70;;;;;;5026062;28;20484;-70
2022/05/25 11:25:44;;;;;;;1999.90;999.90;;;19.90;61.40;;;;;;5044527;28;20510;-69
2022/05/25 11:28:37;;;;;;;1999.90;999.90;;;19.70;66.90;;;;;;5043921;28;20471;-71
2022/05/25 11:31:15;;;;;;;1999.90;999.90;;;20.00;67.60;;;;;;5045384;28;20401;-70
2022/05/25 11:34:01;;;;;;;1999.90;999.90;;;20.30;64.30;;;;;;5043324;28;20642;-69
2022/05/25 11:36:55;;;;;;;1999.90;999.90;;;20.60;58.50;;;;;;5030556;28;20454;-69
2022/05/25 11:39:26;;;;;;;1999.90;999.90;;;20.90;58.20;;;;;;5041377;28;20515;-72
2022/05/25 11:42:03;;;;;;;1999.90;999.90;;;21.20;57.50;;;;;;5042079;28;20489;-71
2022/05/25 11:44:57;;;;;;;1999.90;999.90;;;21.30;52.80;;;;;;5042346;28;20443;-71
2022/05/25 11:47:22;;;;;;;1999.90;999.90;;;21.40;49.10;;;;;;5043419;28;20786;-72
2022/05/25 11:50:25;;;;;;;1999.90;999.90;;;21.50;49.90;;;;;;5042741;28;20436;-72
2022/05/25 11:53:08;;;;;;;1999.90;999.90;;;21.60;50.30;;;;;;5043038;28;20180;-71
2022/05/25 11:55:42;;;;;;;1999.90;999.90;;;21.20;53.50;;;;;;5042588;28;20918;-71
2022/05/25 11:58:18;;;;;;;1999.90;999.90;;;20.90;52.40;;;;;;5042786;28;20465;-71
2022/05/25 12:00:46;;;;;;;1999.90;999.90;;;20.70;53.00;;;;;;5041264;28;20433;-70
2022/05/25 12:03:40;;;;;;;1999.90;999.90;;;20.50;56.10;;;;;;5040288;28;20498;-68
2022/05/25 12:06:42;;;;;;;1999.90;999.90;;;21.00;56.40;;;;;;5042379;28;20410;-72
2022/05/25 12:09:44;;;;;;;1999.90;999.90;;;21.00;51.40;;;;;;5043082;28;20485;-70
2022/05/25 12:12:15;;;;;;;1999.90;999.90;;;20.60;51.90;;;;;;5042046;28;20464;-71
2022/05/25 12:14:49;;;;;;;1999.90;999.90;;;20.20;55.30;;;;;;5043534;28;20405;-69
2022/05/25 12:17:37;;;;;;;1999.90;999.90;;;20.70;53.00;;;;;;5044235;28;20436;-70
2022/05/25 12:20:09;;;;;;;1999.90;999.90;;;21.60;50.90;;;;;;5044777;28;20466;-72
2022/05/25 12:22:36;;;;;;;1999.90;999.90;;;22.00;46.00;;;;;;5044965;28;20418;-69
2022/05/25 12:25:08;;;;;;;1999.90;999.90;;;21.80;46.70;;;;;;5042659;28;20623;-72
2022/05/25 12:27:54;;;;;;;1999.90;999.90;;;21.20;45.90;;;;;;5043380;28;20525;-72
2022/05/25 12:30:32;;;;;;;1999.90;999.90;;;20.80;45.50;;;;;;5043273;28;20446;-71
2022/05/25 12:33:01;;;;;;;1999.90;999.90;;;20.60;47.50;;;;;;5044461;28;20423;-71
2022/05/25 12:35:30;;;;;;;1999.90;999.90;;;21.40;49.40;;;;;;5042861;28;20411;-70
2022/05/25 12:37:56;;;;;;;1999.90;999.90;;;21.90;43.60;;;;;;5043959;28;20822;-72
2022/05/25 12:40:25;;;;;;;1999.90;999.90;;;22.00;44.40;;;;;;5045222;28;20476;-69
2022/05/25 12:42:51;;;;;;;1999.90;999.90;;;22.60;46.20;;;;;;5046954;28;20431;-70
2022/05/25 12:48:30;;;;;;;1999.90;999.90;;;23.20;39.20;;;;;;5045430;28;20225;-71